createdAt,value
2023-11-09T00:00:10.785Z,73.16
2023-11-09T00:02:58.567Z,73.33
2023-11-09T00:05:26.558Z,73.09
2023-11-09T00:07:54.617Z,73.08
2023-11-09T00:10:22.977Z,73.18
2023-11-09T00:12:52.601Z,72.82
2023-11-09T00:15:21.815Z,73.16
2023-11-09T00:17:49.976Z,72.87
2023-11-09T00:20:18.089Z,72.96
2023-11-09T00:22:47.760Z,72.63
2023-11-09T00:25:15.603Z,72.69
2023-11-09T00:27:43.432Z,73.01
2023-11-09T00:30:11.200Z,72.97
2023-11-09T00:32:38.882Z,72.86
2023-11-09T00:35:06.915Z,73.06
2023-11-09T00:37:34.794Z,72.98
2023-11-09T00:40:02.641Z,73.19
2023-11-09T00:42:30.631Z,72.68
2023-11-09T00:44:58.784Z,72.95
2023-11-09T00:47:26.598Z,72.87
2023-11-09T00:49:55.055Z,72.72
2023-11-09T00:52:23.273Z,72.78
2023-11-09T00:54:52.706Z,72.81
2023-11-09T00:57:25.718Z,72.78
2023-11-09T00:59:53.590Z,72.79
2023-11-09T01:02:21.960Z,73.04
2023-11-09T01:04:49.778Z,72.69
2023-11-09T01:07:18.185Z,72.90
2023-11-09T01:09:47.198Z,72.63
2023-11-09T01:12:15.203Z,72.68
2023-11-09T01:14:45.189Z,72.52
2023-11-09T01:17:12.950Z,72.71
2023-11-09T01:19:40.779Z,72.82
2023-11-09T01:22:08.748Z,72.55
2023-11-09T01:24:36.549Z,72.29
2023-11-09T01:27:04.314Z,72.75
2023-11-09T01:29:32.089Z,72.81
2023-11-09T01:32:00.085Z,72.70
2023-11-09T01:34:27.995Z,72.70
2023-11-09T01:36:55.917Z,72.63
2023-11-09T01:39:24.497Z,72.93
2023-11-09T01:41:52.675Z,72.72
2023-11-09T01:44:20.411Z,72.97
2023-11-09T01:46:54.702Z,72.89
2023-11-09T01:49:22.801Z,73.24
2023-11-09T01:51:55.749Z,73.20
2023-11-09T01:54:24.060Z,72.92
2023-11-09T01:56:52.231Z,73.21
2023-11-09T01:59:19.998Z,73.19
2023-11-09T02:01:47.867Z,73.07
2023-11-09T02:04:15.667Z,73.09
2023-11-09T02:06:43.769Z,73.23
2023-11-09T02:09:11.572Z,72.95
2023-11-09T02:11:39.642Z,73.10
2023-11-09T02:14:07.402Z,73.15
2023-11-09T02:16:35.665Z,73.28
2023-11-09T02:19:04.507Z,72.97
2023-11-09T02:21:32.786Z,72.96
2023-11-09T02:24:00.520Z,73.35
2023-11-09T02:26:28.374Z,73.25
2023-11-09T02:28:56.341Z,73.28
2023-11-09T02:31:24.139Z,73.24
2023-11-09T02:33:52.023Z,72.93
2023-11-09T02:36:20.589Z,73.05
2023-11-09T02:38:48.528Z,73.15
2023-11-09T02:41:16.294Z,73.22
2023-11-09T02:43:44.585Z,73.45
2023-11-09T02:46:13.069Z,73.25
2023-11-09T02:48:42.238Z,72.93
2023-11-09T02:51:10.233Z,73.19
2023-11-09T02:53:38.796Z,73.02
2023-11-09T02:56:09.529Z,73.32
2023-11-09T02:58:37.300Z,73.38
2023-11-09T03:01:05.109Z,73.15
2023-11-09T03:03:33.539Z,73.27
2023-11-09T03:06:01.436Z,73.29
2023-11-09T03:08:29.782Z,72.86
2023-11-09T03:10:57.559Z,73.05
2023-11-09T03:13:25.404Z,73.00
2023-11-09T03:15:53.290Z,72.97
2023-11-09T03:18:21.575Z,72.89
2023-11-09T03:20:49.427Z,73.02
2023-11-09T03:23:17.191Z,72.80
2023-11-09T03:25:44.957Z,72.90
2023-11-09T03:28:12.731Z,72.98
2023-11-09T03:30:40.690Z,72.95
2023-11-09T03:33:10.841Z,73.09
2023-11-09T03:35:38.579Z,73.04
2023-11-09T03:38:06.347Z,73.15
2023-11-09T03:40:34.125Z,72.95
2023-11-09T03:43:01.991Z,73.07
2023-11-09T03:45:29.934Z,73.08
2023-11-09T03:47:57.779Z,72.90
2023-11-09T03:50:25.670Z,72.96
2023-11-09T03:52:54.395Z,72.61
2023-11-09T03:55:22.356Z,72.88
2023-11-09T03:57:50.090Z,73.04
2023-11-09T04:00:20.067Z,72.71
2023-11-09T04:02:48.015Z,73.14
2023-11-09T04:05:15.850Z,73.08
2023-11-09T04:07:44.736Z,72.80
2023-11-09T04:10:14.199Z,72.93
2023-11-09T04:12:41.996Z,72.96
2023-11-09T04:15:10.821Z,73.02
2023-11-09T04:17:38.591Z,72.93
2023-11-09T04:20:08.175Z,72.82
2023-11-09T04:22:36.817Z,72.83
2023-11-09T04:25:05.161Z,72.84
2023-11-09T04:27:36.095Z,72.67
2023-11-09T04:30:04.740Z,72.99
2023-11-09T04:32:33.652Z,72.57
2023-11-09T04:35:01.474Z,72.82
2023-11-09T04:37:30.121Z,72.57
2023-11-09T04:40:00.005Z,72.68
2023-11-09T04:42:31.028Z,72.62
2023-11-09T04:44:58.844Z,72.61
2023-11-09T04:47:27.111Z,72.48
2023-11-09T04:50:03.416Z,72.97
2023-11-09T04:52:32.364Z,72.38
2023-11-09T04:55:12.354Z,72.59
2023-11-09T04:57:59.356Z,72.64
2023-11-09T05:00:47.257Z,72.27
2023-11-09T05:03:34.762Z,72.59
2023-11-09T05:06:32.121Z,72.34
2023-11-09T05:08:59.995Z,72.62
2023-11-09T05:11:29.598Z,72.44
2023-11-09T05:13:57.365Z,72.47
2023-11-09T05:16:25.544Z,72.63
2023-11-09T05:18:53.508Z,72.30
2023-11-09T05:21:22.395Z,72.62
2023-11-09T05:23:50.167Z,72.40
2023-11-09T05:26:18.127Z,72.50
2023-11-09T05:28:46.450Z,72.61
2023-11-09T05:31:14.284Z,72.67
2023-11-09T05:33:42.074Z,72.61
2023-11-09T05:36:09.924Z,72.64
2023-11-09T05:38:37.769Z,72.63
2023-11-09T05:41:05.740Z,72.77
2023-11-09T05:43:33.429Z,72.62
2023-11-09T05:46:01.202Z,72.48
2023-11-09T05:48:28.985Z,72.56
2023-11-09T05:50:58.753Z,72.63
2023-11-09T05:53:27.938Z,72.41
2023-11-09T05:55:55.708Z,72.34
2023-11-09T05:58:23.948Z,72.35
2023-11-09T06:00:53.584Z,72.27
2023-11-09T06:03:22.420Z,72.54
2023-11-09T06:05:51.994Z,72.54
2023-11-09T06:08:20.565Z,72.64
2023-11-09T06:10:50.823Z,72.68
2023-11-09T06:13:20.280Z,72.43
2023-11-09T06:15:48.677Z,72.63
2023-11-09T06:18:17.789Z,72.71
2023-11-09T06:20:48.429Z,72.37
2023-11-09T06:23:16.265Z,72.66
2023-11-09T06:25:44.608Z,72.32
2023-11-09T06:28:12.796Z,72.31
2023-11-09T06:30:40.684Z,72.36
2023-11-09T06:33:10.832Z,72.03
2023-11-09T06:35:40.412Z,72.27
2023-11-09T06:38:09.913Z,72.55
2023-11-09T06:40:37.638Z,72.09
2023-11-09T06:43:05.517Z,72.30
2023-11-09T06:45:33.312Z,72.31
2023-11-09T06:48:01.115Z,72.30
2023-11-09T06:50:28.992Z,72.15
2023-11-09T06:52:57.220Z,71.88
2023-11-09T06:55:26.094Z,72.13
2023-11-09T06:57:58.416Z,72.40
2023-11-09T07:00:26.555Z,71.95
2023-11-09T07:02:58.749Z,71.99
2023-11-09T07:05:27.203Z,71.84
2023-11-09T07:07:57.799Z,71.96
2023-11-09T07:10:25.653Z,71.56
2023-11-09T07:12:53.564Z,71.82
2023-11-09T07:15:21.785Z,71.89
2023-11-09T07:17:49.538Z,71.81
2023-11-09T07:20:17.368Z,71.70
2023-11-09T07:22:45.136Z,71.48
2023-11-09T07:25:14.197Z,71.59
2023-11-09T07:27:42.309Z,71.27
2023-11-09T07:30:10.072Z,71.37
2023-11-09T07:32:37.827Z,71.32
2023-11-09T07:35:06.821Z,71.91
2023-11-09T07:37:34.619Z,71.93
2023-11-09T07:40:04.719Z,71.72
2023-11-09T07:42:32.703Z,71.92
2023-11-09T07:45:00.444Z,71.66
2023-11-09T07:47:29.045Z,71.40
2023-11-09T07:49:58.337Z,71.36
2023-11-09T07:52:27.275Z,71.25
2023-11-09T07:54:56.015Z,71.36
2023-11-09T07:57:24.072Z,71.35
2023-11-09T07:59:51.851Z,71.43
2023-11-09T08:02:21.137Z,70.86
2023-11-09T08:04:49.625Z,70.61
2023-11-09T08:07:17.399Z,70.32
2023-11-09T08:09:45.146Z,70.45
2023-11-09T08:12:13.050Z,70.01
2023-11-09T08:14:40.983Z,70.08
2023-11-09T08:17:16.154Z,70.07
2023-11-09T08:19:50.927Z,69.98
2023-11-09T08:22:18.965Z,69.90
2023-11-09T08:24:47.194Z,69.54
2023-11-09T08:27:14.958Z,69.02
2023-11-09T08:29:42.726Z,69.13
2023-11-09T08:32:11.764Z,68.87
2023-11-09T08:34:41.752Z,68.51
2023-11-09T08:37:11.900Z,68.62
2023-11-09T08:39:39.925Z,68.70
2023-11-09T08:42:07.791Z,68.42
2023-11-09T08:44:37.398Z,68.45
2023-11-09T08:47:05.104Z,68.55
2023-11-09T08:49:33.004Z,68.32
2023-11-09T08:52:05.776Z,67.78
2023-11-09T08:54:33.677Z,67.77
2023-11-09T08:57:01.545Z,67.13
2023-11-09T08:59:32.229Z,66.95
2023-11-09T09:02:03.345Z,66.33
2023-11-09T09:04:31.415Z,66.26
2023-11-09T09:06:59.187Z,65.85
2023-11-09T09:09:34.527Z,65.60
2023-11-09T09:12:11.102Z,65.13
2023-11-09T09:14:38.933Z,65.01
2023-11-09T09:17:06.875Z,64.82
2023-11-09T09:19:35.173Z,64.25
2023-11-09T09:22:05.298Z,64.40
2023-11-09T09:24:33.062Z,64.25
2023-11-09T09:27:00.826Z,64.12
2023-11-09T09:29:31.054Z,64.15
2023-11-09T09:31:59.877Z,64.04
2023-11-09T09:34:27.823Z,63.68
2023-11-09T09:36:59.960Z,63.22
2023-11-09T09:39:29.285Z,63.36
2023-11-09T09:42:00.383Z,63.45
2023-11-09T09:44:28.181Z,63.41
2023-11-09T09:46:56.968Z,63.29
2023-11-09T09:49:27.300Z,63.56
2023-11-09T09:51:56.085Z,63.48
2023-11-09T09:54:25.075Z,63.21
2023-11-09T09:56:55.189Z,63.15
2023-11-09T09:59:23.879Z,63.26
2023-11-09T10:01:51.840Z,63.05
2023-11-09T10:04:20.180Z,62.65
2023-11-09T10:06:48.203Z,62.70
2023-11-09T10:09:16.743Z,62.90
2023-11-09T10:11:44.849Z,62.46
2023-11-09T10:14:13.249Z,62.42
2023-11-09T10:16:42.664Z,62.37
2023-11-09T10:19:11.053Z,61.97
2023-11-09T10:21:39.493Z,62.05
2023-11-09T10:24:07.668Z,61.75
2023-11-09T10:26:35.977Z,61.57
2023-11-09T10:29:05.200Z,61.35
2023-11-09T10:31:33.133Z,61.19
2023-11-09T10:34:02.160Z,60.91
2023-11-09T10:36:30.171Z,60.62
2023-11-09T10:38:57.939Z,60.64
2023-11-09T10:41:53.791Z,60.61
2023-11-09T10:44:19.479Z,60.53
2023-11-09T10:46:47.205Z,60.40
2023-11-09T10:49:15.177Z,59.95
2023-11-09T10:51:45.734Z,59.78
2023-11-09T10:54:13.504Z,60.12
2023-11-09T10:56:41.206Z,59.93
2023-11-09T10:59:10.104Z,60.13
2023-11-09T11:01:38.133Z,59.95
2023-11-09T11:04:09.916Z,60.04
2023-11-09T11:06:38.184Z,59.83
2023-11-09T11:09:09.822Z,59.92
2023-11-09T11:11:38.095Z,59.90
2023-11-09T11:14:06.985Z,59.47
2023-11-09T11:16:35.121Z,59.35
2023-11-09T11:19:08.032Z,59.18
2023-11-09T11:21:37.590Z,59.26
2023-11-09T11:24:06.233Z,59.38
2023-11-09T11:26:47.868Z,59.48
2023-11-09T11:29:22.559Z,59.76
2023-11-09T11:31:50.522Z,59.26
2023-11-09T11:34:18.319Z,59.22
2023-11-09T11:36:49.219Z,58.99
2023-11-09T11:39:22.460Z,59.29
2023-11-09T11:41:51.668Z,59.17
2023-11-09T11:44:24.407Z,59.10
2023-11-09T11:46:59.532Z,58.99
2023-11-09T11:49:27.301Z,58.90
2023-11-09T11:51:55.156Z,58.80
2023-11-09T11:54:23.844Z,58.53
2023-11-09T11:56:53.142Z,58.52
2023-11-09T11:59:24.038Z,58.69
2023-11-09T12:01:52.536Z,58.34
2023-11-09T12:04:20.428Z,58.53
2023-11-09T12:06:48.387Z,58.47
2023-11-09T12:09:16.983Z,58.37
2023-11-09T12:11:45.493Z,58.52
2023-11-09T12:14:13.679Z,58.61
2023-11-09T12:16:41.749Z,58.65
2023-11-09T12:19:13.873Z,58.75
2023-11-09T12:21:42.194Z,58.74
2023-11-09T12:24:14.943Z,58.89
2023-11-09T12:26:44.075Z,59.08
2023-11-09T12:29:12.264Z,59.01
2023-11-09T12:31:40.094Z,59.37
2023-11-09T12:34:09.227Z,59.05
2023-11-09T12:36:39.214Z,59.30
2023-11-09T12:39:25.995Z,59.00
2023-11-09T12:41:54.072Z,59.06
2023-11-09T12:44:23.061Z,59.29
2023-11-09T12:46:50.843Z,59.34
2023-11-09T12:49:18.645Z,59.49
2023-11-09T12:51:48.501Z,59.36
2023-11-09T12:54:16.272Z,59.55
2023-11-09T12:56:46.387Z,59.47
2023-11-09T12:59:16.199Z,59.61
2023-11-09T13:01:44.901Z,59.63
2023-11-09T13:04:23.435Z,59.88
2023-11-09T13:06:51.471Z,59.76
2023-11-09T13:09:39.690Z,59.93
2023-11-09T13:12:26.685Z,59.84
2023-11-09T13:15:12.727Z,60.02
2023-11-09T13:17:54.426Z,60.48
2023-11-09T13:20:30.685Z,60.20
2023-11-09T13:23:06.744Z,60.46
2023-11-09T13:25:36.205Z,60.68
2023-11-09T13:28:05.444Z,60.87
2023-11-09T13:30:35.096Z,60.87
2023-11-09T13:33:15.671Z,61.09
2023-11-09T13:35:49.005Z,61.12
2023-11-09T13:38:31.110Z,61.36
2023-11-09T13:41:13.751Z,61.10
2023-11-09T13:43:50.455Z,61.36
2023-11-09T13:46:24.046Z,61.51
2023-11-09T13:48:52.511Z,61.37
2023-11-09T13:51:28.565Z,61.62
2023-11-09T13:54:19.436Z,61.87
2023-11-09T13:57:02.358Z,61.97
2023-11-09T13:59:33.196Z,62.09
2023-11-09T14:02:00.960Z,62.53
2023-11-09T14:04:32.497Z,62.39
2023-11-09T14:07:03.271Z,62.39
2023-11-09T14:09:38.280Z,62.35
2023-11-09T14:12:13.620Z,62.71
2023-11-09T14:14:47.740Z,62.64
2023-11-09T14:17:19.316Z,62.80
2023-11-09T14:19:55.561Z,62.72
2023-11-09T14:22:25.478Z,63.18
2023-11-09T14:24:55.325Z,62.96
2023-11-09T14:27:29.705Z,63.37
2023-11-09T14:29:58.999Z,63.56
2023-11-09T14:32:27.874Z,63.48
2023-11-09T14:34:56.114Z,63.63
2023-11-09T14:37:24.232Z,63.73
2023-11-09T14:40:10.946Z,63.92
2023-11-09T14:42:39.113Z,63.85
2023-11-09T14:45:07.203Z,63.93
2023-11-09T14:47:43.744Z,63.97
2023-11-09T14:50:20.829Z,64.05
2023-11-09T14:52:58.256Z,64.12
2023-11-09T14:55:29.076Z,64.19
2023-11-09T14:57:59.194Z,64.26
2023-11-09T15:00:28.391Z,64.31
2023-11-09T15:02:57.720Z,64.54
2023-11-09T15:05:29.458Z,64.40
2023-11-09T15:07:59.275Z,64.58
2023-11-09T15:10:27.373Z,64.53
2023-11-09T15:12:55.341Z,64.57
2023-11-09T15:15:23.785Z,64.95
2023-11-09T15:17:51.866Z,64.82
2023-11-09T15:20:28.529Z,64.70
2023-11-09T15:23:01.064Z,64.79
2023-11-09T15:25:32.509Z,64.96
2023-11-09T15:28:02.301Z,64.84
2023-11-09T15:30:31.408Z,64.75
2023-11-09T15:33:01.671Z,64.76
2023-11-09T15:35:29.393Z,64.89
2023-11-09T15:38:00.834Z,64.79
2023-11-09T15:41:09.912Z,64.90
2023-11-09T15:43:19.849Z,64.92
2023-11-09T15:45:53.103Z,64.93
2023-11-09T15:48:21.026Z,64.89
2023-11-09T15:50:51.109Z,64.82
2023-11-09T15:53:18.916Z,64.59
2023-11-09T15:55:47.282Z,64.71
2023-11-09T15:58:16.290Z,64.87
2023-11-09T16:00:47.365Z,64.91
2023-11-09T16:03:15.378Z,64.84
2023-11-09T16:05:43.980Z,64.68
2023-11-09T16:08:12.070Z,64.53
2023-11-09T16:10:41.853Z,64.66
2023-11-09T16:13:09.634Z,64.67
2023-11-09T16:15:37.396Z,64.68
2023-11-09T16:18:06.024Z,64.54
2023-11-09T16:20:36.291Z,64.76
2023-11-09T16:23:07.643Z,64.64
2023-11-09T16:25:35.810Z,64.54
2023-11-09T16:28:07.933Z,64.63
2023-11-09T16:30:39.144Z,64.59
2023-11-09T16:33:09.655Z,64.62
2023-11-09T16:35:38.185Z,64.60
2023-11-09T16:38:06.438Z,64.77
2023-11-09T16:40:35.749Z,64.52
2023-11-09T16:43:04.528Z,64.73
2023-11-09T16:45:32.503Z,64.51
2023-11-09T16:48:00.418Z,64.57
2023-11-09T16:50:28.314Z,64.82
2023-11-09T16:52:56.031Z,64.63
2023-11-09T16:55:24.164Z,64.67
2023-11-09T16:57:52.429Z,64.79
2023-11-09T17:00:20.192Z,64.60
2023-11-09T17:02:49.031Z,64.87
2023-11-09T17:05:18.101Z,64.81
2023-11-09T17:07:47.047Z,65.11
2023-11-09T17:10:18.221Z,65.08
2023-11-09T17:12:45.986Z,65.13
2023-11-09T17:15:14.833Z,65.62
2023-11-09T17:17:43.511Z,65.58
2023-11-09T17:20:12.044Z,65.52
2023-11-09T17:22:40.664Z,65.71
2023-11-09T17:25:09.636Z,65.77
2023-11-09T17:27:37.623Z,65.84
2023-11-09T17:30:13.128Z,65.81
2023-11-09T17:32:41.690Z,65.77
2023-11-09T17:35:10.495Z,65.93
2023-11-09T17:37:39.021Z,66.13
2023-11-09T17:40:12.781Z,65.80
2023-11-09T17:42:40.975Z,65.99
2023-11-09T17:45:08.718Z,65.85
2023-11-09T17:47:39.653Z,66.07
2023-11-09T17:50:09.784Z,65.93
2023-11-09T17:52:38.481Z,66.10
2023-11-09T17:55:06.538Z,66.42
2023-11-09T17:57:34.860Z,66.18
2023-11-09T18:00:02.846Z,66.25
2023-11-09T18:02:30.826Z,66.20
2023-11-09T18:04:58.661Z,66.00
2023-11-09T18:07:26.506Z,66.35
2023-11-09T18:09:54.559Z,66.03
2023-11-09T18:12:22.455Z,66.05
2023-11-09T18:14:50.815Z,66.28
2023-11-09T18:17:18.633Z,66.53
2023-11-09T18:19:46.635Z,66.60
2023-11-09T18:22:14.716Z,66.25
2023-11-09T18:24:42.474Z,66.44
2023-11-09T18:27:10.248Z,66.37
2023-11-09T18:29:38.105Z,66.40
2023-11-09T18:32:05.965Z,66.50
2023-11-09T18:34:34.062Z,66.35
2023-11-09T18:37:01.807Z,66.07
2023-11-09T18:39:31.313Z,66.30
2023-11-09T18:41:59.486Z,66.34
2023-11-09T18:44:27.256Z,66.10
2023-11-09T18:46:55.202Z,66.20
2023-11-09T18:51:54.539Z,66.14
2023-11-09T18:54:22.302Z,66.28
2023-11-09T18:56:50.165Z,66.31
2023-11-09T18:59:17.932Z,66.38
2023-11-09T19:01:45.845Z,66.41
2023-11-09T19:06:44.428Z,66.16
2023-11-09T19:09:13.287Z,66.27
2023-11-09T19:11:43.604Z,66.37
2023-11-09T19:14:11.685Z,66.44
2023-11-09T19:16:39.429Z,66.39
2023-11-09T19:19:07.257Z,66.14
2023-11-09T19:24:06.020Z,66.23
2023-11-09T19:26:33.783Z,66.13
2023-11-09T19:29:01.558Z,65.90
2023-11-09T19:31:29.241Z,66.15
2023-11-09T19:33:57.690Z,66.10
2023-11-09T19:36:26.887Z,65.91
2023-11-09T19:38:55.607Z,66.39
2023-11-09T19:41:23.338Z,66.21
2023-11-09T19:43:51.511Z,66.04
2023-11-09T19:46:21.257Z,66.38
2023-11-09T19:48:49.117Z,66.26
2023-11-09T19:51:16.994Z,66.21
2023-11-09T19:53:45.498Z,66.11
2023-11-09T19:56:13.336Z,66.08
2023-11-09T19:58:41.372Z,66.27
2023-11-09T20:01:09.184Z,66.38
2023-11-09T20:03:37.105Z,66.32
2023-11-09T20:06:05.108Z,66.25
2023-11-09T20:08:32.947Z,66.11
2023-11-09T20:11:01.738Z,66.50
2023-11-09T20:13:29.627Z,66.38
2023-11-09T20:15:57.859Z,66.28
2023-11-09T20:18:25.751Z,66.32
2023-11-09T20:20:53.605Z,66.44
2023-11-09T20:23:21.371Z,66.32
2023-11-09T20:25:49.566Z,66.30
2023-11-09T20:28:18.437Z,66.15
2023-11-09T20:30:46.210Z,66.26
2023-11-09T20:33:14.041Z,66.25
2023-11-09T20:35:41.951Z,66.24
2023-11-09T20:38:13.086Z,66.05
2023-11-09T20:40:40.945Z,66.44
2023-11-09T20:43:10.241Z,66.38
2023-11-09T20:45:39.897Z,66.24
2023-11-09T20:48:10.883Z,65.82
2023-11-09T20:50:38.964Z,66.09
2023-11-09T20:53:07.552Z,66.14
2023-11-09T20:55:36.131Z,66.25
2023-11-09T20:58:06.062Z,66.25
2023-11-09T21:00:35.837Z,66.27
2023-11-09T21:03:05.809Z,66.22
2023-11-09T21:05:36.116Z,66.23
2023-11-09T21:08:03.981Z,66.15
2023-11-09T21:10:33.566Z,66.32
2023-11-09T21:13:02.266Z,66.37
2023-11-09T21:15:30.151Z,66.26
2023-11-09T21:17:59.485Z,66.46
2023-11-09T21:20:28.010Z,66.73
2023-11-09T21:22:55.771Z,66.53
2023-11-09T21:25:23.536Z,66.34
2023-11-09T21:27:51.812Z,66.42
2023-11-09T21:30:19.651Z,66.45
2023-11-09T21:32:47.589Z,66.51
2023-11-09T21:35:18.462Z,66.74
2023-11-09T21:37:46.620Z,66.90
2023-11-09T21:40:16.244Z,66.99
2023-11-09T21:42:44.383Z,67.45
2023-11-09T21:45:15.469Z,67.37
2023-11-09T21:47:43.747Z,67.48
2023-11-09T21:50:11.664Z,67.47
2023-11-09T21:52:39.382Z,67.52
2023-11-09T21:55:10.423Z,67.30
2023-11-09T21:57:39.579Z,67.40
2023-11-09T22:00:08.537Z,67.77
2023-11-09T22:02:36.403Z,67.41
2023-11-09T22:05:04.673Z,67.80
2023-11-09T22:07:32.523Z,67.54
2023-11-09T22:10:01.880Z,67.36
2023-11-09T22:12:29.989Z,67.53
2023-11-09T22:14:58.087Z,67.59
2023-11-09T22:17:26.159Z,67.56
2023-11-09T22:19:53.909Z,67.53
2023-11-09T22:22:21.669Z,67.57
2023-11-09T22:24:50.294Z,67.56
2023-11-09T22:27:19.356Z,67.57
2023-11-09T22:29:47.224Z,67.48
2023-11-09T22:32:14.978Z,67.36
2023-11-09T22:34:42.769Z,67.32
2023-11-09T22:37:11.755Z,68.18
2023-11-09T22:39:39.891Z,67.84
2023-11-09T22:42:10.725Z,67.98
2023-11-09T22:44:38.612Z,67.91
2023-11-09T22:47:07.103Z,67.93
2023-11-09T22:49:34.758Z,67.99
2023-11-09T22:52:02.643Z,68.07
2023-11-09T22:54:31.984Z,68.15
2023-11-09T22:56:59.892Z,68.50
2023-11-09T22:59:27.656Z,68.43
2023-11-09T23:01:55.446Z,68.57
2023-11-09T23:04:23.354Z,68.27
2023-11-09T23:06:51.157Z,68.17
2023-11-09T23:09:19.514Z,68.22
2023-11-09T23:11:47.533Z,68.50
2023-11-09T23:14:15.367Z,68.75
2023-11-09T23:16:43.161Z,68.51
2023-11-09T23:19:11.000Z,68.86
2023-11-09T23:21:40.636Z,69.15
2023-11-09T23:24:08.491Z,69.09
2023-11-09T23:26:36.346Z,69.20
2023-11-09T23:29:04.219Z,69.07
2023-11-09T23:31:32.000Z,69.34
2023-11-09T23:34:02.000Z,69.12
2023-11-09T23:36:30.352Z,69.41
2023-11-09T23:38:58.241Z,69.10
2023-11-09T23:41:25.999Z,69.26
2023-11-09T23:43:53.762Z,69.30
2023-11-09T23:46:21.564Z,69.42
2023-11-09T23:48:49.423Z,69.47
2023-11-09T23:51:18.432Z,69.34
2023-11-09T23:53:46.463Z,69.19
2023-11-09T23:56:14.226Z,69.36
2023-11-09T23:58:41.993Z,69.17
